Latest Weather Observations for Dennes Point

IDT60801

Issued at 10:05 pm EST Tuesday 23 September 2014 (issued every 30 minutes, with the page automatically refreshed every 10 minutes)

About weather observations | Map of weather stations | Latest weather observations for TAS | Other Formats
Station Details ID: 094255 Name: DENNES POINT Lat: -43.06 Lon: 147.36 Height: 5.67 m
Data from the previous 72 hours. | See also: Recent months at Dennes Point
Date/Time
EST
Temp
°C
App
Temp
°C
Dew
Point
Rel
Hum
%
Delta-T
°C
Wind Press
QNH
hPa
Press
MSL
hPa
Rain
since 9 am
mm
Dir
 
Spd
km/h
Gust
km/h
Spd
kts
Gust
kts
23/10:00pm 12.5 11.8 6.8 68 2.7 ENE 0 6 0 3 1018.6 1018.6 0.0
23/09:30pm 14.2 12.5 7.7 65 3.2 NE 6 7 3 4 1018.8 1018.8 0.0
23/09:00pm 14.2 12.8 9.0 71 2.6 N 6 9 3 5 1019.1 1019.1 0.0
23/08:30pm 14.5 12.7 7.3 62 3.5 E 6 13 3 7 1019.1 1019.1 0.0
23/08:00pm 15.0 13.9 6.8 58 4.0 ENE 2 6 1 3 1019.4 1019.4 0.0
23/07:30pm 14.7 13.6 8.6 67 3.1 ENE 4 6 2 3 1019.3 1019.3 0.0
23/07:00pm 15.4 13.6 9.3 67 3.1 N 9 11 5 6 1019.2 1019.2 0.0
23/06:30pm 16.5 15.1 8.7 60 4.0 NNE 6 9 3 5 1019.1 1019.1 0.0
23/06:00pm 17.0 15.5 6.8 51 5.0 SW 4 13 2 7 1018.8 1018.8 0.0
23/05:30pm 18.5 17.6 7.6 49 5.5 WSW 2 6 1 3 1018.9 1018.9 0.0
23/05:00pm 20.3 16.5 5.9 39 7.1 WSW 15 20 8 11 1018.7 1018.7 0.0
23/04:30pm 21.7 18.4 4.7 33 8.3 W 11 19 6 10 1018.7 1018.7 0.0
23/04:00pm 21.8 19.3 3.5 30 8.8 ESE 6 13 3 7 1018.9 1018.9 0.0
23/03:30pm 21.2 17.9 4.7 34 8.1 E 11 13 6 7 1019.0 1019.0 0.0
23/03:00pm 21.1 17.7 3.8 32 8.3 E 11 15 6 8 1019.3 1019.3 0.0
23/02:30pm 20.6 17.1 5.4 37 7.5 E 13 17 7 9 1019.6 1019.6 0.0
23/02:00pm 19.5 16.6 6.3 42 6.6 ESE 11 15 6 8 1019.9 1019.9 0.0
23/01:30pm 19.9 17.1 5.2 38 7.2 E 9 13 5 7 1020.2 1020.2 0.0
23/12:30pm 19.1 16.2 4.5 38 7.0 E 9 11 5 6 1021.0 1021.0 0.0
23/12:00pm 17.9 15.5 5.2 43 6.1 E 7 11 4 6 1021.5 1021.5 0.0
23/11:30am 17.4 14.5 4.7 43 6.0 E 9 13 5 7 1022.0 1022.0 0.0
23/11:00am 16.4 14.1 5.7 49 5.1 E 7 13 4 7 1022.3 1022.3 0.0
23/10:30am 15.1 13.0 5.6 53 4.5 NE 6 7 3 4 1022.7 1022.7 0.0
23/10:00am 14.9 12.7 5.1 52 4.6 ENE 6 7 3 4 1023.0 1023.0 0.0
23/09:30am 14.2 11.9 5.0 54 4.3 ENE 6 7 3 4 1023.4 1023.4 0.0
23/09:00am 12.6 10.7 6.9 68 2.7 ENE 6 7 3 4 1023.7 1023.7 0.0
23/08:30am 11.9 10.1 5.5 65 3.0 E 4 7 2 4 1023.7 1023.7 0.0
23/08:00am 10.4 9.4 5.6 72 2.2 CALM 0 0 0 0 1023.7 1023.7 0.0
23/07:30am 9.8 8.8 5.8 76 1.8 CALM 0 0 0 0 1023.3 1023.3 0.0
23/07:00am 7.2 4.0 3.3 76 1.6 SW 9 11 5 6 1023.2 1023.2 0.0
23/06:30am 7.3 5.0 2.8 73 1.9 SSW 4 9 2 5 1023.0 1023.0 0.0
23/06:00am 7.2 4.8 1.9 69 2.2 SW 4 7 2 4 1022.7 1022.7 0.0
23/05:30am 8.2 5.2 2.2 66 2.5 SSW 7 11 4 6 1022.6 1022.6 0.0
23/05:00am 6.6 3.0 2.7 76 1.6 SSW 11 13 6 7 1022.4 1022.4 0.0
23/04:30am 7.0 4.4 4.0 81 1.3 SW 7 11 4 6 1022.7 1022.7 0.0
23/04:00am 7.0 4.5 4.7 85 1.0 SW 7 9 4 5 1022.7 1022.7 0.0
23/03:30am 6.9 4.5 5.1 88 0.8 SW 7 11 4 6 1022.8 1022.8 0.0
23/03:00am 9.6 8.5 6.9 83 1.3 SW 2 6 1 3 1022.9 1022.9 0.0
23/02:30am 8.3 6.1 5.4 82 1.3 SW 6 7 3 4 1023.2 1023.2 0.0
23/02:00am 8.1 5.9 6.1 87 0.9 SSW 7 13 4 7 1023.5 1023.5 0.0
23/01:30am 8.7 5.8 6.5 86 1.0 SSW 11 13 6 7 1023.8 1023.8 0.0
23/01:00am 8.2 5.0 6.8 91 0.6 SSW 13 15 7 8 1024.0 1024.0 0.0
23/12:30am 8.5 6.6 7.6 94 0.4 SW 7 11 4 6 1024.0 1024.0 0.0
23/12:00am 10.4 9.9 9.3 93 0.5 SSW 2 4 1 2 1023.8 1023.8 0.0
 
Date/Time
EST
Temp
°C
App
Temp
°C
Dew
Point
Rel
Hum
%
Delta-T
°C
Wind Press
QNH
hPa
Press
MSL
hPa
Rain
since 9 am
mm
Dir
 
Spd
km/h
Gust
km/h
Spd
kts
Gust
kts
22/11:30pm 8.5 7.2 7.7 95 0.4 SW 4 7 2 4 1023.8 1023.8 0.0
22/11:00pm 9.0 7.3 8.2 95 0.4 SSW 7 11 4 6 1023.7 1023.7 0.0
22/10:30pm 9.4 7.7 8.5 94 0.4 SSW 7 9 4 5 1023.6 1023.6 0.0
22/10:00pm 9.8 8.2 8.7 93 0.5 SSW 7 9 4 5 1023.7 1023.7 0.0
22/09:30pm 10.5 9.1 8.9 90 0.8 SSW 6 7 3 4 1023.6 1023.6 0.0
22/09:00pm 10.1 8.6 8.5 90 0.8 SSW 6 7 3 4 1023.6 1023.6 0.0
22/08:30pm 10.8 10.5 8.6 86 1.1 CALM 0 0 0 0 1023.5 1023.5 0.0
22/08:00pm 11.3 11.0 8.7 84 1.3 CALM 0 0 0 0 1023.3 1023.3 0.0
22/07:30pm 11.3 9.9 9.0 86 1.1 SSW 6 7 3 4 1023.0 1023.0 0.0
22/07:00pm 11.8 11.0 9.7 87 1.1 E 4 7 2 4 1022.4 1022.4 0.0
22/06:30pm 11.8 10.9 9.4 85 1.2 E 4 7 2 4 1022.1 1022.1 0.0
22/06:00pm 12.2 11.0 9.4 83 1.4 ESE 6 9 3 5 1022.0 1022.0 0.0
22/05:30pm 13.4 11.8 10.2 81 1.7 E 9 13 5 7 1022.0 1022.0 0.0
22/05:00pm 14.4 13.4 10.4 77 2.1 N 6 13 3 7 1021.7 1021.7 0.0
22/04:30pm 15.1 14.0 10.5 74 2.4 E 7 13 4 7 1021.4 1021.4 0.0
22/04:00pm 16.1 15.0 9.8 66 3.3 ENE 6 15 3 8 1021.3 1021.3 0.0
22/03:30pm 17.6 16.6 10.2 62 3.9 SW 6 9 3 5 1021.5 1021.5 0.0
22/03:00pm 19.7 17.8 6.8 43 6.5 SSE 6 9 3 5 1021.5 1021.5 0.0
22/02:30pm 17.8 14.8 7.5 51 5.2 E 13 19 7 10 1021.7 1021.7 0.0
22/02:00pm 17.7 15.0 8.8 56 4.6 E 13 19 7 10 1022.1 1022.1 0.0
22/01:30pm 17.5 15.4 8.1 54 4.8 E 9 11 5 6 1022.4 1022.4 0.0
22/01:00pm 17.6 15.5 6.8 49 5.3 E 7 9 4 5 1023.0 1023.0 0.0
22/12:30pm 17.2 15.3 7.5 53 4.9 E 7 11 4 6 1023.4 1023.4 0.0
22/12:00pm 15.9 14.5 9.6 66 3.3 E 7 11 4 6 1023.9 1023.9 0.0
22/11:30am 15.9 13.9 6.1 52 4.7 E 6 7 3 4 1024.3 1024.3 0.0
22/11:00am 15.0 13.5 6.8 58 4.0 E 4 6 2 3 1024.7 1024.7 0.0
22/10:30am 14.1 12.0 6.7 61 3.6 E 7 9 4 5 1024.9 1024.9 0.0
22/10:00am 13.8 11.6 7.8 67 2.9 ENE 9 19 5 10 1025.3 1025.3 0.0
22/09:30am 12.9 11.0 6.5 65 3.1 E 6 7 3 4 1025.7 1025.7 0.0
22/09:00am 11.9 10.2 5.8 66 2.8 ENE 4 7 2 4 1026.0 1026.0 0.0
22/08:30am 11.1 9.4 6.0 71 2.4 NE 4 6 2 3 1026.2 1026.2 0.0
22/08:00am 10.6 9.0 6.2 74 2.0 ENE 4 7 2 4 1026.2 1026.2 0.0
22/07:30am 8.9 7.1 5.6 80 1.5 S 4 7 2 4 1026.4 1026.4 0.0
22/07:00am 7.0 4.2 5.2 88 0.8 SSW 9 11 5 6 1026.5 1026.5 0.0
22/06:30am 7.0 5.1 4.7 85 1.0 SW 4 9 2 5 1026.3 1026.3 0.0
22/06:00am 6.8 4.3 4.6 86 0.9 SSW 7 9 4 5 1026.2 1026.2 0.0
22/05:30am 8.5 7.1 5.3 80 1.4 SSW 2 4 1 2 1026.1 1026.1 0.0
22/05:00am 8.6 7.6 5.5 81 1.4 CALM 0 0 0 0 1026.0 1026.0 0.0
22/04:30am 7.5 5.4 3.9 78 1.5 S 4 7 2 4 1025.9 1025.9 0.0
22/04:00am 7.5 3.8 4.5 81 1.3 S 13 15 7 8 1025.9 1025.9 0.0
22/03:30am 7.0 3.4 5.0 87 0.9 SSW 13 17 7 9 1026.0 1026.0 0.0
22/03:00am 7.0 3.4 5.0 87 0.9 SSW 13 15 7 8 1026.3 1026.3 0.0
22/02:30am 7.1 4.2 4.9 86 1.0 SW 9 11 5 6 1026.4 1026.4 0.0
22/02:00am 7.6 5.0 4.4 80 1.4 SSW 7 9 4 5 1026.3 1026.3 0.0
22/01:30am 8.2 5.4 5.0 80 1.4 SSW 9 13 5 7 1026.5 1026.5 0.0
22/01:00am 8.5 6.0 4.9 78 1.6 SSW 7 9 4 5 1026.6 1026.6 0.0
22/12:30am 8.2 5.7 4.0 75 1.8 S 6 9 3 5 1026.7 1026.7 0.0
22/12:00am 9.9 8.8 5.1 72 2.2 CALM 0 2 0 1 1026.8 1026.8 0.0
 
Date/Time
EST
Temp
°C
App
Temp
°C
Dew
Point
Rel
Hum
%
Delta-T
°C
Wind Press
QNH
hPa
Press
MSL
hPa
Rain
since 9 am
mm
Dir
 
Spd
km/h
Gust
km/h
Spd
kts
Gust
kts
21/11:30pm 11.2 9.7 6.7 74 2.1 S 4 6 2 3 1026.9 1026.9 0.0
21/11:00pm 11.0 10.2 6.6 74 2.1 CALM 0 0 0 0 1027.1 1027.1 0.0
21/10:30pm 10.9 9.1 5.2 68 2.6 SSW 4 6 2 3 1027.4 1027.4 0.0
21/10:00pm 10.8 8.4 5.3 69 2.5 SSW 7 9 4 5 1027.5 1027.5 0.0
21/09:30pm 11.3 9.4 4.7 64 3.0 SW 4 7 2 4 1027.5 1027.5 0.0
21/09:00pm 12.0 10.1 5.0 62 3.2 WSW 4 9 2 5 1027.4 1027.4 0.0
21/08:30pm 11.9 9.2 5.8 66 2.8 W 9 13 5 7 1027.3 1027.3 0.0
21/08:00pm 12.4 8.7 6.5 67 2.8 W 15 19 8 10 1027.0 1027.0 0.0
21/07:30pm 12.7 11.3 5.6 62 3.3 W 2 7 1 4 1027.0 1027.0 0.0
21/07:00pm 12.1 9.7 4.3 59 3.5 SW 6 11 3 6 1026.6 1026.6 0.0
21/06:30pm 13.0 10.6 4.4 56 3.9 SSW 6 9 3 5 1026.4 1026.4 0.0
21/06:00pm 13.9 11.7 6.3 60 3.6 SW 7 11 4 6 1026.0 1026.0 0.0
21/05:30pm 15.8 12.9 6.5 54 4.5 SW 11 17 6 9 1025.8 1025.8 0.0
21/05:00pm 16.9 14.0 6.4 50 5.1 SW 11 15 6 8 1025.6 1025.6 0.0
21/04:30pm 16.6 12.4 7.5 55 4.6 WSW 19 26 10 14 1025.4 1025.4 0.0
21/04:00pm 17.4 12.1 6.9 50 5.2 W 24 32 13 17 1025.2 1025.2 0.0
21/03:30pm 17.8 14.4 7.8 52 5.1 W 15 20 8 11 1025.3 1025.3 0.0
21/03:00pm 18.5 14.7 6.0 44 6.1 WSW 15 24 8 13 1025.2 1025.2 0.0
21/02:30pm 18.9 14.5 5.0 40 6.7 WSW 17 24 9 13 1025.1 1025.1 0.0
21/02:00pm 19.1 15.2 6.9 45 6.1 WSW 17 22 9 12 1025.2 1025.2 0.0
21/01:30pm 18.2 13.8 7.6 50 5.4 W 20 28 11 15 1025.2 1025.2 0.0
21/01:00pm 18.3 13.8 6.2 45 5.9 WSW 19 24 10 13 1025.4 1025.4 0.0
21/12:30pm 18.3 13.3 6.5 46 5.9 W 22 30 12 16 1025.4 1025.4 0.0
21/12:00pm 18.1 14.0 6.3 46 5.8 W 17 22 9 12 1025.6 1025.6 0.0
21/11:30am 17.1 11.7 6.3 49 5.3 WNW 24 32 13 17 1025.7 1025.7 0.0
21/11:00am 16.9 11.6 6.7 51 5.0 W 24 30 13 16 1025.9 1025.9 0.0
21/10:30am 16.1 12.2 7.1 55 4.5 W 17 22 9 12 1026.0 1026.0 0.0
21/10:00am 15.9 11.0 6.9 55 4.4 W 22 28 12 15 1026.0 1026.0 0.0
21/09:30am 15.1 11.1 6.7 57 4.1 W 17 26 9 14 1026.2 1026.2 0.0
21/09:00am 14.0 9.7 7.8 66 3.0 W 20 28 11 15 1026.2 1026.2 0.0
21/08:30am 12.8 8.9 7.0 68 2.8 W 17 26 9 14 1026.1 1026.1 0.0
21/08:00am 12.9 8.5 6.7 66 3.0 W 19 28 10 15 1025.9 1025.9 0.0
21/07:30am 13.3 8.4 7.1 66 3.0 WSW 22 32 12 17 1025.5 1025.5 0.0
21/07:00am 11.8 8.6 6.9 72 2.3 W 13 20 7 11 1025.4 1025.4 0.0
21/06:30am 11.9 9.9 7.2 73 2.3 SW 7 17 4 9 1025.0 1025.0 0.0
21/06:00am 12.0 9.0 7.5 74 2.2 W 13 20 7 11 1024.8 1024.8 0.0
21/05:30am 11.6 8.8 6.9 73 2.2 SW 11 17 6 9 1024.4 1024.4 0.0
21/05:00am 12.4 7.8 6.5 67 2.8 WSW 20 28 11 15 1024.3 1024.3 0.0
21/04:30am 12.1 8.8 6.2 67 2.8 SW 13 22 7 12 1024.3 1024.3 0.0
21/04:00am 11.9 6.5 6.4 69 2.6 W 24 33 13 18 1024.0 1024.0 0.0
21/03:30am 12.1 6.9 5.5 64 3.1 W 22 35 12 19 1024.1 1024.1 0.0
21/03:00am 11.8 6.2 5.4 65 2.9 W 24 32 13 17 1024.2 1024.2 0.0
21/02:30am 11.8 5.7 4.8 62 3.2 W 26 33 14 18 1024.4 1024.4 0.0
21/02:00am 11.6 5.9 5.0 64 3.0 W 24 33 13 18 1024.8 1024.8 0.0
21/01:30am 11.4 5.0 5.1 65 2.9 W 28 35 15 19 1024.9 1024.9 0.0
21/01:00am 11.1 5.3 4.6 64 2.9 W 24 30 13 16 1025.3 1025.3 0.0
21/12:30am 10.9 6.5 4.8 66 2.8 W 17 24 9 13 1025.3 1025.3 0.0
21/12:00am 10.2 6.9 4.4 67 2.6 W 11 19 6 10 1025.2 1025.2 0.0
 
Date/Time
EST
Temp
°C
App
Temp
°C
Dew
Point
Rel
Hum
%
Delta-T
°C
Wind Press
QNH
hPa
Press
MSL
hPa
Rain
since 9 am
mm
Dir
 
Spd
km/h
Gust
km/h
Spd
kts
Gust
kts
20/11:30pm 10.7 7.0 4.4 65 2.8 W 13 19 7 10 1025.3 1025.3 0.0
20/11:00pm 10.8 5.4 4.5 65 2.8 W 22 32 12 17 1025.5 1025.5 0.0
20/10:30pm 11.2 3.9 4.7 64 2.9 W 32 41 17 22 1025.6 1025.6 0.0

Other Formats:

Comma delimited format used in spreadsheet applications
http://www.bom.gov.au/fwo/IDT60801/IDT60801.94988.axf

JavaScript Object Notation format (JSON) in row-major order
http://www.bom.gov.au/fwo/IDT60801/IDT60801.94988.json